Time;durP1;ratioP1;P1;durP2;ratioP2;P2;SDS_P1;SDS_P2;PMS_P1;PMS_P2;Temp;Humidity;BMP_temperature;BMP_pressure;BME280_temperature;BME280_humidity;BME280_pressure;Samples;Min_cycle;Max_cycle;Signal;HPM_P1;HPM_P2
2023/07/24 00:00:41;;;;;;;13.67;10.53;;;17.30;99.90;;;;;;5032195;28;20473;-67
2023/07/24 00:03:09;;;;;;;15.70;11.07;;;17.20;99.90;;;;;;5031572;28;20490;-68
2023/07/24 00:05:37;;;;;;;13.23;9.80;;;17.20;99.90;;;;;;5030575;28;20981;-67
2023/07/24 00:08:07;;;;;;;14.70;9.23;;;17.20;99.90;;;;;;5031473;28;20457;-67
2023/07/24 00:10:35;;;;;;;13.37;10.80;;;17.10;99.90;;;;;;5031865;28;20875;-68
2023/07/24 00:13:03;;;;;;;13.90;10.93;;;17.00;99.90;;;;;;5031455;28;20584;-67
2023/07/24 00:15:31;;;;;;;12.83;10.70;;;17.10;99.90;;;;;;5031660;28;20429;-68
2023/07/24 00:17:59;;;;;;;16.83;11.30;;;17.10;99.90;;;;;;5031803;28;20449;-68
2023/07/24 00:20:27;;;;;;;15.13;12.07;;;17.20;99.90;;;;;;5013945;28;20689;-68
2023/07/24 00:22:55;;;;;;;14.90;11.00;;;17.20;99.90;;;;;;5011603;28;20820;-69
2023/07/24 00:25:25;;;;;;;12.40;9.90;;;17.10;99.90;;;;;;5011983;28;20442;-68
2023/07/24 00:27:52;;;;;;;12.07;9.30;;;17.10;99.90;;;;;;5011945;28;20895;-68
2023/07/24 00:30:20;;;;;;;11.23;10.03;;;17.10;99.90;;;;;;5011838;28;20552;-68
2023/07/24 00:32:48;;;;;;;11.47;10.20;;;17.00;99.90;;;;;;5010892;28;20478;-68
2023/07/24 00:35:17;;;;;;;14.63;10.30;;;16.90;99.90;;;;;;5012688;28;20454;-67
2023/07/24 00:37:44;;;;;;;11.53;10.00;;;16.90;99.90;;;;;;5011472;28;20507;-67
2023/07/24 00:40:13;;;;;;;12.30;9.73;;;16.90;99.90;;;;;;5011466;28;20472;-67
2023/07/24 00:42:47;;;;;;;11.53;9.77;;;17.00;99.90;;;;;;5011074;28;20874;-67
2023/07/24 00:45:15;;;;;;;12.40;10.13;;;16.90;99.90;;;;;;5011423;28;20432;-67
2023/07/24 00:47:44;;;;;;;11.40;9.17;;;16.90;99.90;;;;;;5011250;28;20516;-67
2023/07/24 00:50:13;;;;;;;11.17;9.30;;;16.80;99.90;;;;;;5016988;28;20505;-66
2023/07/24 00:52:42;;;;;;;11.43;9.20;;;16.80;99.90;;;;;;5037540;28;20477;-69
2023/07/24 00:55:11;;;;;;;14.70;10.40;;;16.70;99.90;;;;;;5035878;28;20471;-67
2023/07/24 00:57:39;;;;;;;12.87;10.20;;;16.60;99.90;;;;;;5032751;28;20527;-68
2023/07/24 01:00:10;;;;;;;11.83;10.00;;;16.50;99.90;;;;;;5034182;28;20464;-68
2023/07/24 01:02:38;;;;;;;9.23;8.33;;;16.50;99.90;;;;;;5032440;28;20507;-67
2023/07/24 01:05:08;;;;;;;10.07;9.07;;;16.40;99.90;;;;;;5030907;28;20441;-67
2023/07/24 01:07:36;;;;;;;13.20;10.10;;;16.30;99.90;;;;;;5030634;28;20506;-67
2023/07/24 01:10:06;;;;;;;14.13;10.50;;;16.40;99.90;;;;;;5030008;28;20471;-67
2023/07/24 01:12:40;;;;;;;11.63;8.57;;;16.30;99.90;;;;;;5029955;28;20987;-67
2023/07/24 01:15:14;;;;;;;12.23;9.90;;;16.30;99.90;;;;;;5030771;28;20437;-67
2023/07/24 01:17:46;;;;;;;10.47;9.37;;;16.30;99.90;;;;;;5029725;28;20469;-67
2023/07/24 01:20:18;;;;;;;10.50;9.20;;;16.30;99.90;;;;;;5028050;28;20468;-67
2023/07/24 01:22:58;;;;;;;11.37;9.83;;;16.20;99.90;;;;;;5034259;28;20437;-67
2023/07/24 01:25:35;;;;;;;16.40;10.43;;;16.20;99.90;;;;;;5026970;28;20456;-67
2023/07/24 01:28:08;;;;;;;10.90;9.30;;;16.10;99.90;;;;;;5032374;28;20509;-68
2023/07/24 01:30:36;;;;;;;12.93;9.60;;;16.00;99.90;;;;;;5034039;28;20530;-68
2023/07/24 01:33:04;;;;;;;11.07;9.87;;;16.10;99.90;;;;;;5030147;28;21028;-68
2023/07/24 01:35:33;;;;;;;14.80;10.80;;;16.10;99.90;;;;;;5030193;28;20445;-69
2023/07/24 01:38:03;;;;;;;13.37;10.60;;;16.10;99.90;;;;;;5030354;28;20865;-68
2023/07/24 01:40:32;;;;;;;11.63;10.40;;;16.00;99.90;;;;;;5029833;28;20858;-68
2023/07/24 01:43:00;;;;;;;12.37;10.33;;;16.00;99.90;;;;;;5015077;28;20816;-68
2023/07/24 01:45:29;;;;;;;15.37;10.60;;;16.00;99.90;;;;;;5010412;28;20449;-68
2023/07/24 01:47:57;;;;;;;13.43;10.77;;;16.10;99.90;;;;;;5010176;28;20556;-68
2023/07/24 01:50:25;;;;;;;11.27;9.57;;;16.00;99.90;;;;;;5010586;28;20462;-68
2023/07/24 01:52:53;;;;;;;13.50;11.10;;;16.00;99.90;;;;;;5009934;28;20483;-67
2023/07/24 01:55:21;;;;;;;13.20;11.30;;;16.00;99.90;;;;;;5010117;28;20994;-67
2023/07/24 01:57:49;;;;;;;13.17;11.13;;;16.00;99.90;;;;;;5010011;28;20450;-67
2023/07/24 02:00:17;;;;;;;14.73;11.40;;;16.10;99.90;;;;;;5009960;28;20976;-67
2023/07/24 02:02:47;;;;;;;14.03;10.83;;;16.10;99.90;;;;;;5008801;28;20445;-68
2023/07/24 02:05:15;;;;;;;13.10;11.50;;;16.10;99.90;;;;;;5016321;28;20450;-67
2023/07/24 02:07:43;;;;;;;12.40;10.47;;;16.10;99.90;;;;;;5029801;28;21009;-67
2023/07/24 02:10:11;;;;;;;14.17;11.70;;;16.20;99.90;;;;;;5029681;28;20464;-67
2023/07/24 02:12:39;;;;;;;15.53;11.23;;;16.30;99.90;;;;;;5030114;28;20480;-67
2023/07/24 02:15:08;;;;;;;12.63;11.27;;;16.30;99.90;;;;;;5030787;28;20547;-67
2023/07/24 02:17:36;;;;;;;15.13;10.53;;;16.30;99.90;;;;;;5029995;28;20449;-68
2023/07/24 02:20:06;;;;;;;10.80;9.23;;;16.30;99.90;;;;;;5029573;28;20468;-68
2023/07/24 02:22:35;;;;;;;12.13;10.83;;;16.30;99.90;;;;;;5013648;28;20442;-67
2023/07/24 02:25:03;;;;;;;11.23;10.00;;;16.40;99.90;;;;;;5009817;28;21249;-68
2023/07/24 02:27:34;;;;;;;11.53;10.33;;;16.40;99.90;;;;;;5009996;28;20512;-67
2023/07/24 02:30:03;;;;;;;13.50;10.60;;;16.30;99.90;;;;;;5014014;28;20484;-67
2023/07/24 02:32:32;;;;;;;12.37;10.67;;;16.30;99.90;;;;;;5013357;28;20481;-67
2023/07/24 02:35:00;;;;;;;11.90;10.10;;;16.30;99.90;;;;;;5013613;28;21016;-67
2023/07/24 02:37:29;;;;;;;12.43;9.70;;;16.30;99.90;;;;;;5017791;28;20484;-67
2023/07/24 02:39:57;;;;;;;13.57;10.03;;;16.30;99.90;;;;;;5033393;28;20953;-68
2023/07/24 02:42:25;;;;;;;11.27;10.07;;;16.30;99.90;;;;;;5033091;28;21034;-67
2023/07/24 02:44:53;;;;;;;11.03;9.80;;;16.20;99.90;;;;;;5033363;28;20957;-67
2023/07/24 02:47:21;;;;;;;13.73;11.30;;;16.20;99.90;;;;;;5033405;28;20498;-67
2023/07/24 02:49:49;;;;;;;12.37;9.77;;;16.20;99.90;;;;;;5033176;28;20941;-67
2023/07/24 02:52:17;;;;;;;11.67;10.03;;;16.10;99.90;;;;;;5033340;28;20460;-67
2023/07/24 02:54:46;;;;;;;11.70;9.20;;;16.10;99.90;;;;;;5021532;28;20549;-68
2023/07/24 02:57:14;;;;;;;12.23;9.13;;;16.10;99.90;;;;;;5013449;28;20861;-68
2023/07/24 02:59:42;;;;;;;13.57;10.40;;;16.00;99.90;;;;;;5013162;28;20460;-68
2023/07/24 03:02:10;;;;;;;12.40;9.27;;;16.00;99.90;;;;;;5013300;28;20879;-68
2023/07/24 03:04:38;;;;;;;12.07;10.10;;;16.00;99.90;;;;;;5013015;28;20544;-67
2023/07/24 03:07:06;;;;;;;11.97;9.80;;;16.00;99.90;;;;;;5012960;28;20441;-67
2023/07/24 03:09:34;;;;;;;11.13;9.33;;;16.00;99.90;;;;;;5013052;28;20527;-68
2023/07/24 03:12:04;;;;;;;10.73;9.20;;;15.90;99.90;;;;;;5012946;28;20520;-68
2023/07/24 03:14:32;;;;;;;12.13;10.30;;;15.80;99.90;;;;;;5012845;28;20534;-68
2023/07/24 03:17:00;;;;;;;11.47;9.87;;;15.90;99.90;;;;;;5012842;28;20499;-68
2023/07/24 03:19:30;;;;;;;11.67;9.40;;;15.80;99.90;;;;;;5012694;28;20440;-68
2023/07/24 03:21:58;;;;;;;12.23;10.03;;;15.70;99.90;;;;;;5045071;28;20546;-68
2023/07/24 03:24:26;;;;;;;9.83;8.83;;;15.70;99.90;;;;;;5037110;28;20524;-67
2023/07/24 03:26:54;;;;;;;11.47;10.27;;;15.60;99.90;;;;;;5034359;28;20547;-67
2023/07/24 03:29:23;;;;;;;11.70;10.03;;;15.50;99.90;;;;;;5030678;28;20511;-68
2023/07/24 03:31:51;;;;;;;10.80;9.70;;;15.50;99.90;;;;;;5032849;28;20834;-67
2023/07/24 03:34:19;;;;;;;12.80;10.70;;;15.60;99.90;;;;;;5033773;28;20534;-66
2023/07/24 03:36:47;;;;;;;12.00;9.70;;;15.70;99.90;;;;;;5036145;28;21237;-67
2023/07/24 03:39:15;;;;;;;14.97;11.00;;;15.70;99.90;;;;;;5031652;28;20947;-66
2023/07/24 03:41:43;;;;;;;11.47;9.90;;;15.60;99.90;;;;;;5032626;28;20625;-67
2023/07/24 03:44:11;;;;;;;12.40;9.83;;;15.50;99.90;;;;;;5022094;28;20529;-67
2023/07/24 03:46:40;;;;;;;14.03;11.60;;;15.70;99.90;;;;;;5042207;28;20449;-67
2023/07/24 03:49:08;;;;;;;14.10;10.83;;;15.70;99.90;;;;;;5052355;28;20451;-67
2023/07/24 03:51:36;;;;;;;15.63;11.60;;;15.60;99.90;;;;;;5040541;28;20468;-67
2023/07/24 03:54:04;;;;;;;13.37;10.00;;;15.70;99.90;;;;;;5031853;28;20518;-68
2023/07/24 03:56:32;;;;;;;13.20;10.20;;;15.80;99.90;;;;;;5031871;28;20460;-67
2023/07/24 03:59:00;;;;;;;15.67;11.23;;;15.70;99.90;;;;;;5032093;28;20462;-67
2023/07/24 04:01:28;;;;;;;15.70;10.90;;;15.80;99.90;;;;;;5031813;28;20467;-68
2023/07/24 04:03:57;;;;;;;14.97;10.97;;;15.90;99.90;;;;;;5031633;28;20456;-68
2023/07/24 04:06:25;;;;;;;11.53;10.10;;;16.00;99.90;;;;;;5015066;28;20952;-67
2023/07/24 04:08:53;;;;;;;10.30;8.97;;;16.00;99.90;;;;;;5020185;28;20447;-68
2023/07/24 04:11:21;;;;;;;12.27;9.50;;;16.10;99.90;;;;;;5051931;28;20528;-69
2023/07/24 04:13:49;;;;;;;10.87;9.27;;;16.30;99.90;;;;;;5051117;28;20472;-69
2023/07/24 04:16:17;;;;;;;11.37;9.53;;;16.30;99.90;;;;;;5051582;28;20943;-69
2023/07/24 04:18:45;;;;;;;11.50;10.27;;;16.30;99.90;;;;;;5051710;28;20535;-66
2023/07/24 04:21:15;;;;;;;10.53;9.43;;;16.30;99.90;;;;;;5045132;28;20498;-65
2023/07/24 04:23:42;;;;;;;11.40;9.77;;;16.30;99.90;;;;;;5031288;28;20513;-65
2023/07/24 04:26:10;;;;;;;12.17;9.50;;;16.30;99.90;;;;;;5031234;28;20441;-65
2023/07/24 04:28:38;;;;;;;12.40;10.70;;;16.40;99.90;;;;;;5031642;28;20444;-66
2023/07/24 04:31:06;;;;;;;11.00;9.27;;;16.50;99.90;;;;;;5031394;28;20464;-66
2023/07/24 04:33:34;;;;;;;10.47;9.30;;;16.60;99.90;;;;;;5031158;28;20480;-66
2023/07/24 04:36:02;;;;;;;12.00;10.20;;;16.50;99.90;;;;;;5031264;28;20453;-67
2023/07/24 04:38:31;;;;;;;11.50;9.63;;;16.60;99.90;;;;;;5029731;28;20444;-65
2023/07/24 04:41:02;;;;;;;11.30;9.97;;;16.60;99.90;;;;;;5031206;28;20588;-65
2023/07/24 04:43:30;;;;;;;11.53;9.40;;;16.70;99.90;;;;;;5031007;28;20448;-65
2023/07/24 04:45:58;;;;;;;10.60;9.27;;;16.80;99.90;;;;;;5031291;28;20449;-65
2023/07/24 04:48:26;;;;;;;11.23;8.63;;;17.00;99.90;;;;;;5031030;28;20447;-65
2023/07/24 04:50:55;;;;;;;10.47;8.87;;;17.20;99.90;;;;;;5030426;28;20495;-66
2023/07/24 04:53:23;;;;;;;11.97;9.73;;;17.20;99.90;;;;;;5028275;28;20504;-66
2023/07/24 04:55:52;;;;;;;12.27;9.30;;;17.30;99.90;;;;;;5031413;28;20448;-65
2023/07/24 04:58:20;;;;;;;9.13;8.23;;;17.30;99.90;;;;;;5030776;28;20441;-65
2023/07/24 05:00:48;;;;;;;10.33;9.23;;;17.40;99.90;;;;;;5030972;28;20473;-66
2023/07/24 05:03:17;;;;;;;10.93;9.87;;;17.40;99.90;;;;;;5030510;28;20480;-66
2023/07/24 05:05:50;;;;;;;13.87;9.20;;;17.40;99.90;;;;;;5030468;28;20433;-66
2023/07/24 05:08:18;;;;;;;11.00;8.33;;;17.50;99.90;;;;;;5021298;28;20561;-66
2023/07/24 05:10:46;;;;;;;10.80;9.20;;;17.60;99.90;;;;;;5031878;28;20495;-67
2023/07/24 05:13:15;;;;;;;12.60;10.17;;;17.70;99.90;;;;;;5030930;28;20449;-68
2023/07/24 05:15:43;;;;;;;13.10;9.50;;;17.90;99.90;;;;;;5030128;28;21002;-66
2023/07/24 05:18:11;;;;;;;10.60;8.80;;;18.00;99.90;;;;;;5030487;28;20536;-67
2023/07/24 05:20:43;;;;;;;15.63;9.77;;;18.10;99.90;;;;;;5030859;28;20827;-66
2023/07/24 05:23:11;;;;;;;10.80;8.97;;;18.20;99.90;;;;;;5029787;28;20473;-66
2023/07/24 05:25:39;;;;;;;10.37;9.03;;;18.40;99.90;;;;;;5030618;28;20436;-69
2023/07/24 05:28:07;;;;;;;11.43;8.63;;;18.40;99.90;;;;;;5030188;28;20481;-67
2023/07/24 05:30:36;;;;;;;11.50;9.13;;;18.50;99.90;;;;;;5030147;28;20523;-67
2023/07/24 05:33:04;;;;;;;12.70;10.30;;;18.50;99.90;;;;;;5029722;28;20456;-67
2023/07/24 05:35:32;;;;;;;10.30;8.90;;;18.40;99.90;;;;;;5030208;28;20576;-66
2023/07/24 05:38:00;;;;;;;12.80;10.00;;;18.50;99.90;;;;;;5030106;28;20440;-67
2023/07/24 05:40:29;;;;;;;13.50;10.60;;;18.60;99.90;;;;;;5028618;28;20542;-67
2023/07/24 05:42:57;;;;;;;11.93;9.30;;;18.60;99.90;;;;;;5035815;28;20484;-68
2023/07/24 05:45:25;;;;;;;13.70;10.03;;;18.50;99.90;;;;;;5033565;28;20429;-67
2023/07/24 05:47:54;;;;;;;10.60;8.53;;;18.60;99.90;;;;;;5033575;28;20449;-68
2023/07/24 05:50:22;;;;;;;12.63;9.33;;;18.50;99.90;;;;;;5023819;28;20560;-67
2023/07/24 05:52:50;;;;;;;9.30;8.20;;;18.50;99.90;;;;;;5042600;28;20514;-67
2023/07/24 05:55:19;;;;;;;10.30;8.67;;;18.50;99.90;;;;;;5033462;28;20468;-67
2023/07/24 05:57:46;;;;;;;10.80;8.93;;;18.50;99.90;;;;;;5033258;28;20514;-67
2023/07/24 06:00:15;;;;;;;12.20;8.87;;;18.50;99.90;;;;;;5033257;28;20468;-66
2023/07/24 06:02:43;;;;;;;13.13;9.33;;;18.50;99.90;;;;;;5031168;28;20445;-66
2023/07/24 06:05:12;;;;;;;11.70;9.73;;;18.50;99.90;;;;;;5029385;28;20450;-66
2023/07/24 06:07:40;;;;;;;11.23;9.33;;;18.50;99.90;;;;;;5029613;28;20444;-66
2023/07/24 06:10:09;;;;;;;13.70;11.00;;;18.60;99.90;;;;;;5028599;28;20535;-66
2023/07/24 06:12:37;;;;;;;11.10;9.80;;;18.60;99.90;;;;;;5031087;28;20445;-66
2023/07/24 06:15:07;;;;;;;11.03;9.43;;;18.70;99.90;;;;;;5042950;28;20488;-66
2023/07/24 06:17:35;;;;;;;10.87;9.30;;;18.70;99.90;;;;;;5034053;28;20445;-66
2023/07/24 06:20:03;;;;;;;12.37;10.70;;;18.80;99.90;;;;;;5032629;28;20469;-67
2023/07/24 06:22:32;;;;;;;12.97;10.13;;;19.00;99.90;;;;;;5044863;28;20448;-67
2023/07/24 06:25:00;;;;;;;12.70;10.50;;;19.10;99.90;;;;;;5030237;28;20528;-66
2023/07/24 06:27:28;;;;;;;13.83;10.33;;;19.20;99.90;;;;;;5029588;28;20444;-67
2023/07/24 06:29:56;;;;;;;12.40;10.63;;;19.30;99.90;;;;;;5029642;28;20469;-67
2023/07/24 06:32:41;;;;;;;13.03;9.30;;;19.40;99.90;;;;;;5029327;28;20448;-67
2023/07/24 06:35:09;;;;;;;14.90;10.27;;;19.50;99.90;;;;;;5029621;28;20968;-67
2023/07/24 06:37:39;;;;;;;10.50;9.00;;;19.60;99.90;;;;;;5025833;28;20461;-67
2023/07/24 06:40:08;;;;;;;10.50;8.60;;;19.70;99.90;;;;;;5035833;28;20541;-66
2023/07/24 06:42:36;;;;;;;10.40;8.47;;;19.80;99.90;;;;;;5032847;28;20459;-66
2023/07/24 06:45:05;;;;;;;10.00;9.00;;;19.90;99.90;;;;;;5029694;28;20533;-67
2023/07/24 06:47:35;;;;;;;9.60;8.60;;;19.90;99.90;;;;;;5029613;28;20441;-66
2023/07/24 06:50:04;;;;;;;11.30;9.30;;;20.00;99.90;;;;;;5029232;28;20512;-66
2023/07/24 06:52:32;;;;;;;10.90;9.33;;;20.20;99.90;;;;;;5028845;28;20456;-67
2023/07/24 06:55:02;;;;;;;10.57;9.27;;;20.30;99.90;;;;;;5028495;28;20473;-66
2023/07/24 06:57:30;;;;;;;11.30;9.43;;;20.40;99.90;;;;;;5029922;28;20451;-66
2023/07/24 06:59:58;;;;;;;10.67;9.57;;;20.50;99.90;;;;;;5029081;28;20524;-66
2023/07/24 07:02:28;;;;;;;9.67;8.67;;;20.50;99.90;;;;;;5029393;28;20472;-66
2023/07/24 07:04:56;;;;;;;12.13;9.37;;;20.40;99.90;;;;;;5015009;28;20892;-66
2023/07/24 07:07:24;;;;;;;10.67;9.00;;;20.30;99.90;;;;;;5029129;28;20535;-66
2023/07/24 07:09:52;;;;;;;13.10;9.60;;;20.20;99.90;;;;;;5029466;28;20445;-66
2023/07/24 07:12:21;;;;;;;13.87;9.10;;;20.30;99.90;;;;;;5011489;28;20549;-67
2023/07/24 07:14:49;;;;;;;12.07;9.50;;;20.40;99.90;;;;;;5009991;28;20483;-66
2023/07/24 07:17:17;;;;;;;11.80;9.10;;;20.40;99.90;;;;;;5014289;28;20476;-67
2023/07/24 07:19:45;;;;;;;11.60;10.40;;;20.60;99.90;;;;;;5013662;28;20536;-68
2023/07/24 07:22:13;;;;;;;10.70;8.90;;;20.70;99.90;;;;;;5013311;28;20461;-67
2023/07/24 07:24:43;;;;;;;12.53;9.77;;;20.70;99.90;;;;;;5012910;28;20536;-67
2023/07/24 07:27:11;;;;;;;11.23;10.03;;;20.90;99.90;;;;;;5013787;28;20449;-67
2023/07/24 07:29:40;;;;;;;13.07;10.20;;;20.80;99.90;;;;;;5012821;28;20541;-67
2023/07/24 07:32:09;;;;;;;13.10;9.90;;;20.80;99.90;;;;;;5012838;28;20442;-67
2023/07/24 07:34:38;;;;;;;13.97;9.97;;;20.70;99.90;;;;;;5012389;28;20549;-67
2023/07/24 07:37:06;;;;;;;11.87;10.67;;;20.70;99.90;;;;;;5012444;28;20880;-67
2023/07/24 07:39:34;;;;;;;12.53;9.37;;;20.80;99.90;;;;;;5027806;28;20531;-67
2023/07/24 07:42:02;;;;;;;14.27;9.07;;;20.80;99.90;;;;;;5032602;28;21315;-67
2023/07/24 07:44:46;;;;;;;17.97;9.80;;;20.90;99.90;;;;;;5031979;28;20436;-67
2023/07/24 07:47:14;;;;;;;15.77;9.90;;;21.00;99.90;;;;;;5032472;28;20494;-67
2023/07/24 07:49:42;;;;;;;11.60;9.70;;;20.90;99.90;;;;;;5032128;28;20430;-67
2023/07/24 07:52:11;;;;;;;13.37;10.23;;;20.90;99.90;;;;;;5015297;28;20944;-67
2023/07/24 07:54:39;;;;;;;13.00;9.87;;;20.90;99.90;;;;;;5012698;28;20489;-67
2023/07/24 07:57:07;;;;;;;15.70;10.53;;;20.90;99.90;;;;;;5039438;28;20506;-67
2023/07/24 07:59:35;;;;;;;14.30;10.27;;;20.90;99.90;;;;;;5032867;28;20546;-67
2023/07/24 08:02:04;;;;;;;14.00;11.00;;;20.90;99.90;;;;;;5036208;28;20440;-67
2023/07/24 08:04:32;;;;;;;14.13;9.60;;;20.90;99.90;;;;;;5022247;28;20583;-67
2023/07/24 08:07:00;;;;;;;14.23;10.00;;;20.80;99.90;;;;;;5036519;28;21181;-67
2023/07/24 08:09:29;;;;;;;14.93;10.17;;;20.60;99.90;;;;;;5012598;28;20470;-67
2023/07/24 08:11:57;;;;;;;19.63;11.00;;;20.50;99.90;;;;;;5011665;28;20465;-67
2023/07/24 08:14:25;;;;;;;15.57;10.37;;;20.40;99.90;;;;;;5011404;28;20871;-67
2023/07/24 08:16:54;;;;;;;13.47;10.73;;;20.20;99.90;;;;;;5010829;28;20882;-68
2023/07/24 08:19:23;;;;;;;13.63;10.70;;;20.00;99.90;;;;;;5012196;28;20949;-67
2023/07/24 08:21:51;;;;;;;12.67;10.60;;;19.90;99.90;;;;;;5025698;28;20831;-68
2023/07/24 08:24:19;;;;;;;15.63;12.13;;;19.70;99.90;;;;;;5039813;28;20445;-67
2023/07/24 08:26:47;;;;;;;14.83;11.20;;;19.60;99.90;;;;;;5036469;28;21029;-68
2023/07/24 08:29:15;;;;;;;13.33;10.40;;;19.40;99.90;;;;;;5016445;28;20994;-68
2023/07/24 08:31:43;;;;;;;12.77;10.73;;;19.30;99.90;;;;;;5022255;28;21062;-68
2023/07/24 08:34:11;;;;;;;15.87;11.33;;;19.10;99.90;;;;;;5033968;28;20527;-68
2023/07/24 08:36:40;;;;;;;12.10;10.77;;;18.90;99.90;;;;;;5028027;28;21033;-68
2023/07/24 08:39:08;;;;;;;17.83;12.07;;;18.80;99.90;;;;;;5029594;28;20547;-68
2023/07/24 08:41:38;;;;;;;16.90;12.40;;;18.80;99.90;;;;;;5039847;28;20464;-68
2023/07/24 08:44:07;;;;;;;15.67;12.67;;;18.70;99.90;;;;;;5035230;28;20532;-67
2023/07/24 08:46:38;;;;;;;17.20;12.00;;;18.90;99.90;;;;;;5029327;28;20437;-68
2023/07/24 08:49:07;;;;;;;14.00;11.80;;;19.00;99.90;;;;;;5028823;28;20943;-68
2023/07/24 08:51:36;;;;;;;16.60;12.00;;;19.10;99.90;;;;;;5030863;28;20499;-67
2023/07/24 08:54:06;;;;;;;16.10;13.00;;;19.30;99.90;;;;;;5034327;28;20452;-68
2023/07/24 08:56:36;;;;;;;14.97;13.37;;;19.20;99.90;;;;;;5030617;28;20477;-67
2023/07/24 08:59:04;;;;;;;17.80;12.67;;;19.30;99.90;;;;;;5028134;28;20802;-68
2023/07/24 09:01:33;;;;;;;18.70;12.73;;;19.50;99.90;;;;;;5032834;28;21098;-68
2023/07/24 09:04:00;;;;;;;15.90;13.80;;;19.70;99.90;;;;;;5041922;28;20445;-68
2023/07/24 09:06:29;;;;;;;14.10;12.60;;;20.00;99.90;;;;;;5029718;28;20520;-68
2023/07/24 09:08:57;;;;;;;12.57;11.23;;;20.20;99.90;;;;;;5029636;28;20532;-68
2023/07/24 09:11:26;;;;;;;12.53;11.27;;;20.40;99.90;;;;;;5028411;28;20477;-67
2023/07/24 09:13:57;;;;;;;14.17;10.90;;;20.50;99.90;;;;;;5039028;28;20436;-67
2023/07/24 09:16:27;;;;;;;13.20;11.57;;;20.70;99.90;;;;;;5049736;28;20525;-67
2023/07/24 09:18:57;;;;;;;14.13;10.97;;;20.90;99.90;;;;;;5038321;28;20441;-67
2023/07/24 09:21:37;;;;;;;13.20;11.60;;;21.20;99.90;;;;;;5026823;28;20480;-66
2023/07/24 09:24:13;;;;;;;15.43;11.30;;;21.30;99.90;;;;;;5017722;28;20456;-67
2023/07/24 09:26:50;;;;;;;11.63;10.47;;;21.60;99.90;;;;;;5020143;28;20449;-66
2023/07/24 09:29:18;;;;;;;11.40;10.20;;;21.80;99.90;;;;;;5018062;28;20446;-67
2023/07/24 09:31:46;;;;;;;13.30;10.80;;;22.10;99.90;;;;;;5021387;28;20458;-67
2023/07/24 09:34:18;;;;;;;10.67;9.37;;;22.40;99.90;;;;;;5012038;28;20799;-67
2023/07/24 09:36:46;;;;;;;15.77;11.27;;;23.00;99.90;;;;;;5011841;28;20473;-66
2023/07/24 09:39:14;;;;;;;12.03;10.83;;;23.40;99.90;;;;;;5007759;28;20446;-66
2023/07/24 09:41:42;;;;;;;10.93;9.70;;;23.40;99.90;;;;;;5007502;28;21011;-66
2023/07/24 09:44:13;;;;;;;11.23;8.90;;;23.30;99.90;;;;;;5007515;28;21238;-66
2023/07/24 09:46:42;;;;;;;9.77;8.70;;;23.00;99.90;;;;;;5007412;28;20442;-65
2023/07/24 09:49:13;;;;;;;9.20;8.30;;;22.80;99.90;;;;;;4946406;29;20456;-65
2023/07/24 09:51:48;;;;;;;9.63;8.40;;;22.50;99.90;;;;;;4969098;28;20462;-66
2023/07/24 09:54:23;;;;;;;13.00;8.17;;;22.30;99.90;;;;;;4985221;28;20482;-66
2023/07/24 09:56:52;;;;;;;9.80;7.90;;;22.10;99.90;;;;;;4984742;28;20612;-65
2023/07/24 09:59:36;;;;;;;8.57;7.63;;;21.90;99.90;;;;;;4974066;28;20588;-65
2023/07/24 10:02:04;;;;;;;9.77;8.50;;;21.90;99.90;;;;;;4965300;28;20523;-65
2023/07/24 10:04:33;;;;;;;9.23;8.20;;;21.80;99.90;;;;;;4965095;28;20448;-66
2023/07/24 10:07:01;;;;;;;10.47;9.40;;;21.70;99.90;;;;;;4966707;28;20446;-65
2023/07/24 10:09:30;;;;;;;9.53;8.53;;;21.60;99.90;;;;;;5007219;28;20492;-66
2023/07/24 10:11:59;;;;;;;9.57;8.40;;;21.50;99.90;;;;;;5008294;28;20469;-65
2023/07/24 10:14:29;;;;;;;10.80;8.70;;;21.50;99.90;;;;;;5008291;28;20496;-66
2023/07/24 10:16:58;;;;;;;8.33;7.57;;;21.40;99.90;;;;;;5007468;28;20564;-66
2023/07/24 10:19:37;;;;;;;9.40;8.10;;;21.20;99.90;;;;;;5008249;28;20450;-66
2023/07/24 10:22:06;;;;;;;9.67;8.70;;;21.10;99.90;;;;;;5009205;28;21058;-66
2023/07/24 10:24:34;;;;;;;10.63;8.43;;;20.90;99.90;;;;;;5008328;28;20871;-65
2023/07/24 10:27:09;;;;;;;9.47;8.40;;;20.70;99.90;;;;;;5008919;28;20524;-66
2023/07/24 10:29:38;;;;;;;12.80;9.00;;;20.60;99.90;;;;;;5008159;28;20442;-66
2023/07/24 10:32:18;;;;;;;9.53;8.53;;;20.50;99.90;;;;;;5010664;28;20472;-66
2023/07/24 10:34:46;;;;;;;9.90;7.50;;;20.40;99.90;;;;;;5036161;28;20449;-66
2023/07/24 10:37:14;;;;;;;8.00;7.20;;;20.40;99.90;;;;;;5024900;28;20582;-66
2023/07/24 10:39:42;;;;;;;8.83;7.93;;;20.30;99.90;;;;;;5028936;28;20819;-66
2023/07/24 10:42:11;;;;;;;9.13;7.53;;;20.20;99.90;;;;;;5025975;28;20528;-66
2023/07/24 10:44:40;;;;;;;10.50;7.60;;;20.20;99.90;;;;;;5031139;28;20443;-66
2023/07/24 10:47:10;;;;;;;8.73;7.60;;;20.10;99.90;;;;;;5008114;28;20820;-66
2023/07/24 10:49:38;;;;;;;9.10;8.20;;;20.00;99.90;;;;;;5009925;28;20446;-65
2023/07/24 10:52:06;;;;;;;15.83;9.67;;;19.90;99.90;;;;;;5024597;28;20464;-67
2023/07/24 10:54:35;;;;;;;11.20;7.90;;;19.70;99.90;;;;;;5024920;28;20445;-66
2023/07/24 10:57:03;;;;;;;9.10;8.10;;;19.60;99.90;;;;;;5011778;28;20874;-66
2023/07/24 10:59:39;;;;;;;9.93;8.83;;;19.50;99.90;;;;;;5018631;28;20453;-66
2023/07/24 11:02:10;;;;;;;16.23;9.10;;;19.40;99.90;;;;;;5026618;28;20479;-67
2023/07/24 11:04:38;;;;;;;11.57;8.30;;;19.40;99.90;;;;;;5016408;28;20512;-66
2023/07/24 11:07:06;;;;;;;12.57;9.90;;;19.40;99.90;;;;;;5020033;28;20425;-66
2023/07/24 11:09:38;;;;;;;12.57;9.30;;;19.40;99.90;;;;;;5015379;28;20446;-66
2023/07/24 11:12:14;;;;;;;12.80;10.10;;;19.30;99.90;;;;;;5021222;28;20464;-66
2023/07/24 11:14:53;;;;;;;16.03;11.50;;;19.30;99.90;;;;;;5028351;28;20444;-65
2023/07/24 11:17:33;;;;;;;13.17;10.80;;;19.30;99.90;;;;;;5025906;28;20484;-65
2023/07/24 11:20:10;;;;;;;11.13;8.77;;;19.30;99.90;;;;;;5031422;28;20447;-66
2023/07/24 11:22:40;;;;;;;10.93;9.53;;;19.30;99.90;;;;;;5028971;28;20448;-67
2023/07/24 11:25:09;;;;;;;9.90;8.90;;;19.30;99.90;;;;;;5029104;28;20441;-67
2023/07/24 11:27:43;;;;;;;11.00;9.10;;;19.20;99.90;;;;;;5021320;28;20450;-66
2023/07/24 11:30:12;;;;;;;11.17;8.80;;;19.20;99.90;;;;;;5016983;28;20551;-66
2023/07/24 11:32:42;;;;;;;17.67;12.20;;;19.20;99.90;;;;;;5019410;28;20598;-67
2023/07/24 11:35:11;;;;;;;24.70;22.20;;;19.20;99.90;;;;;;5011009;28;20453;-66
2023/07/24 11:37:39;;;;;;;10.37;8.90;;;19.30;99.90;;;;;;5010568;28;20480;-66
2023/07/24 11:40:09;;;;;;;10.87;8.80;;;19.20;99.90;;;;;;5012195;28;20462;-66
2023/07/24 11:42:40;;;;;;;10.20;8.60;;;19.20;99.90;;;;;;5011590;28;20452;-68
2023/07/24 11:45:10;;;;;;;10.73;9.20;;;19.40;99.90;;;;;;5012463;28;20462;-66
2023/07/24 11:47:49;;;;;;;9.13;8.23;;;19.80;99.90;;;;;;5018243;28;20534;-66
2023/07/24 11:50:18;;;;;;;11.03;8.40;;;20.90;99.90;;;;;;5031839;28;20535;-66
2023/07/24 11:52:47;;;;;;;11.03;8.13;;;21.80;99.90;;;;;;5012111;28;20508;-66
2023/07/24 11:55:18;;;;;;;10.80;7.57;;;22.20;99.90;;;;;;5012407;28;21033;-66
2023/07/24 11:57:56;;;;;;;7.97;7.10;;;22.30;99.90;;;;;;5012321;28;20917;-66
2023/07/24 12:00:26;;;;;;;8.03;7.17;;;22.10;99.90;;;;;;5038493;28;20505;-67
2023/07/24 12:03:03;;;;;;;9.53;7.00;;;21.90;99.90;;;;;;5041246;28;20448;-66
2023/07/24 12:05:39;;;;;;;8.57;7.77;;;21.60;99.90;;;;;;5035030;28;20444;-66
2023/07/24 12:08:07;;;;;;;8.50;7.70;;;21.10;99.90;;;;;;5019103;28;20875;-66
2023/07/24 12:10:37;;;;;;;9.40;7.73;;;20.80;99.90;;;;;;5028523;28;20456;-66
2023/07/24 12:13:08;;;;;;;11.83;8.53;;;20.60;99.90;;;;;;5013470;28;20433;-66
2023/07/24 12:15:37;;;;;;;9.90;8.63;;;20.40;99.90;;;;;;5018081;28;20812;-66
2023/07/24 12:18:07;;;;;;;11.27;8.07;;;20.30;99.90;;;;;;5022495;28;20606;-66
2023/07/24 12:20:35;;;;;;;10.57;7.17;;;20.10;99.90;;;;;;5018102;28;20462;-67
2023/07/24 12:23:03;;;;;;;14.03;8.00;;;20.00;99.90;;;;;;5009466;28;20482;-67
2023/07/24 12:25:31;;;;;;;8.90;8.00;;;19.90;99.90;;;;;;5009605;28;20504;-67
2023/07/24 12:28:00;;;;;;;9.20;8.30;;;19.90;99.90;;;;;;5009727;28;20434;-66
2023/07/24 12:30:28;;;;;;;8.17;7.47;;;19.90;99.90;;;;;;5009393;28;20473;-67
2023/07/24 12:32:56;;;;;;;8.70;7.80;;;19.90;99.90;;;;;;5009128;28;20488;-67
2023/07/24 12:35:25;;;;;;;9.50;8.33;;;19.90;99.90;;;;;;5020422;28;20449;-67
2023/07/24 12:37:55;;;;;;;9.70;8.63;;;19.90;99.90;;;;;;5018696;28;20474;-67
2023/07/24 12:40:23;;;;;;;9.20;8.30;;;19.90;99.90;;;;;;5013527;28;20473;-67
2023/07/24 12:42:52;;;;;;;9.17;7.80;;;19.90;99.90;;;;;;5018050;28;20521;-66